Time;durP1;ratioP1;P1;durP2;ratioP2;P2;SDS_P1;SDS_P2;PMS_P1;PMS_P2;Temp;Humidity;BMP_temperature;BMP_pressure;BME280_temperature;BME280_humidity;BME280_pressure;Samples;Min_cycle;Max_cycle;Signal;HPM_P1;HPM_P2
2023/01/08 00:01:40;;;;;;;5.47;1.55;;;10.60;99.90;;;;;;5046717;28;20106;-57
2023/01/08 00:04:06;;;;;;;1.25;1.13;;;10.60;99.90;;;;;;5040883;28;20313;-56
2023/01/08 00:06:31;;;;;;;1.85;1.45;;;10.50;99.90;;;;;;5042646;28;20028;-55
2023/01/08 00:08:57;;;;;;;1.85;1.40;;;10.50;99.90;;;;;;5041323;28;20036;-56
2023/01/08 00:11:22;;;;;;;1.38;1.17;;;10.50;99.90;;;;;;5031278;28;20029;-56
2023/01/08 00:13:48;;;;;;;1.98;1.10;;;10.50;99.90;;;;;;5024005;28;20036;-55
2023/01/08 00:16:15;;;;;;;2.15;1.33;;;10.50;99.90;;;;;;5022654;28;20025;-55
2023/01/08 00:18:42;;;;;;;1.80;1.23;;;10.50;99.90;;;;;;5023885;28;20041;-57
2023/01/08 00:21:07;;;;;;;1.73;1.17;;;10.50;99.90;;;;;;5022164;28;20132;-57
2023/01/08 00:23:34;;;;;;;1.85;1.42;;;10.50;99.90;;;;;;5023700;28;20160;-57
2023/01/08 00:26:01;;;;;;;1.52;1.30;;;10.50;99.90;;;;;;5022523;28;20037;-57
2023/01/08 00:28:26;;;;;;;3.13;1.38;;;10.60;99.90;;;;;;5042042;28;20392;-56
2023/01/08 00:30:52;;;;;;;4.63;1.35;;;10.60;99.90;;;;;;5041692;28;20044;-55
2023/01/08 00:33:17;;;;;;;1.80;1.30;;;10.50;99.90;;;;;;5044204;28;20029;-57
2023/01/08 00:35:43;;;;;;;1.73;1.30;;;10.50;99.90;;;;;;5045394;28;20040;-55
2023/01/08 00:38:09;;;;;;;2.13;1.25;;;10.50;99.90;;;;;;5045427;28;20471;-55
2023/01/08 00:40:35;;;;;;;2.53;1.30;;;10.50;99.90;;;;;;5040966;28;20972;-56
2023/01/08 00:43:02;;;;;;;3.67;1.65;;;10.50;99.90;;;;;;5042627;28;20029;-56
2023/01/08 00:45:27;;;;;;;2.63;1.40;;;10.50;99.90;;;;;;5042538;28;20041;-56
2023/01/08 00:47:53;;;;;;;3.42;1.40;;;10.60;99.90;;;;;;5043166;28;20254;-56
2023/01/08 00:50:19;;;;;;;2.33;1.55;;;10.60;99.90;;;;;;5042841;28;20022;-56
2023/01/08 00:52:44;;;;;;;2.53;1.60;;;10.50;99.90;;;;;;5040684;28;20029;-56
2023/01/08 00:55:10;;;;;;;2.05;1.27;;;10.50;99.90;;;;;;5042673;28;20037;-56
2023/01/08 00:57:37;;;;;;;2.75;1.40;;;10.50;99.90;;;;;;5041876;28;20029;-55
2023/01/08 01:00:07;;;;;;;3.72;1.65;;;10.50;99.90;;;;;;5035333;28;20418;-55
2023/01/08 01:02:34;;;;;;;2.38;1.52;;;10.50;99.90;;;;;;5041493;28;20067;-56
2023/01/08 01:05:00;;;;;;;3.58;1.50;;;10.50;99.90;;;;;;5041391;28;20032;-55
2023/01/08 01:07:26;;;;;;;2.67;1.50;;;10.50;99.90;;;;;;5041922;28;20033;-56
2023/01/08 01:09:51;;;;;;;3.08;1.60;;;10.60;99.90;;;;;;5043000;28;20067;-55
2023/01/08 01:12:17;;;;;;;3.75;1.80;;;10.50;99.90;;;;;;5044609;28;20104;-56
2023/01/08 01:14:42;;;;;;;3.20;1.80;;;10.50;99.90;;;;;;5046522;28;20136;-55
2023/01/08 01:17:12;;;;;;;3.08;1.48;;;10.50;99.90;;;;;;5046950;28;20112;-57
2023/01/08 01:19:38;;;;;;;3.60;1.58;;;10.50;99.90;;;;;;5047384;28;20040;-56
2023/01/08 01:22:04;;;;;;;3.72;1.80;;;10.50;99.90;;;;;;5044818;28;20127;-56
2023/01/08 01:24:29;;;;;;;2.63;1.70;;;10.50;99.90;;;;;;5047011;28;20551;-55
2023/01/08 01:26:56;;;;;;;3.35;1.50;;;10.50;99.90;;;;;;5045490;28;20116;-56
2023/01/08 01:29:23;;;;;;;3.50;1.70;;;10.40;99.90;;;;;;5045910;28;20041;-57
2023/01/08 01:31:48;;;;;;;3.45;1.70;;;10.40;99.90;;;;;;5046988;28;20033;-56
2023/01/08 01:34:14;;;;;;;3.17;1.92;;;10.40;99.90;;;;;;5048476;28;20030;-55
2023/01/08 01:36:39;;;;;;;2.75;1.80;;;10.50;99.90;;;;;;5043294;28;20066;-55
2023/01/08 01:39:05;;;;;;;3.30;1.73;;;10.50;99.90;;;;;;5046402;28;20044;-54
2023/01/08 01:41:44;;;;;;;3.58;1.60;;;10.50;99.90;;;;;;5044626;28;20037;-55
2023/01/08 01:44:40;;;;;;;2.85;1.70;;;10.50;99.90;;;;;;5048686;28;20438;-56
2023/01/08 01:47:20;;;;;;;4.95;2.22;;;10.50;99.90;;;;;;5025980;28;20492;-56
2023/01/08 01:50:13;;;;;;;3.60;1.83;;;10.50;99.90;;;;;;5026775;28;20029;-54
2023/01/08 01:52:48;;;;;;;3.72;1.80;;;10.50;99.90;;;;;;5040366;28;20033;-56
2023/01/08 01:55:14;;;;;;;3.67;1.85;;;10.50;99.90;;;;;;5044478;28;20040;-55
2023/01/08 01:57:47;;;;;;;4.18;2.00;;;10.50;99.90;;;;;;5044686;28;20987;-56
2023/01/08 02:00:14;;;;;;;3.20;1.80;;;10.60;99.90;;;;;;5023569;28;20034;-55
2023/01/08 02:02:39;;;;;;;2.67;1.90;;;10.60;99.90;;;;;;5018079;28;20128;-56
2023/01/08 02:05:05;;;;;;;4.20;1.90;;;10.50;99.90;;;;;;5026137;28;20536;-55
2023/01/08 02:07:43;;;;;;;4.60;1.88;;;10.60;99.90;;;;;;5024304;28;20034;-56
2023/01/08 02:10:23;;;;;;;2.08;1.80;;;10.60;99.90;;;;;;5025156;28;20408;-57
2023/01/08 02:13:00;;;;;;;3.03;1.70;;;10.50;99.90;;;;;;5025896;28;20030;-57
2023/01/08 02:15:41;;;;;;;2.70;1.75;;;10.50;99.90;;;;;;5023615;28;20045;-54
2023/01/08 02:18:08;;;;;;;2.22;1.50;;;10.50;99.90;;;;;;5026839;28;20076;-55
2023/01/08 02:20:48;;;;;;;2.88;1.67;;;10.60;99.90;;;;;;5023894;28;20485;-55
2023/01/08 02:23:25;;;;;;;3.90;1.75;;;10.60;99.90;;;;;;5025625;28;20570;-56
2023/01/08 02:26:14;;;;;;;2.95;1.70;;;10.50;99.90;;;;;;5021663;28;20493;-56
2023/01/08 02:28:47;;;;;;;4.38;1.75;;;10.50;99.90;;;;;;5027781;28;20048;-56
2023/01/08 02:31:14;;;;;;;2.83;1.83;;;10.50;99.90;;;;;;5042795;28;20518;-56
2023/01/08 02:33:40;;;;;;;4.13;1.70;;;10.70;99.90;;;;;;5049531;28;20128;-56
2023/01/08 02:36:12;;;;;;;3.33;1.90;;;10.70;99.90;;;;;;5042858;28;20128;-56
2023/01/08 02:38:52;;;;;;;4.80;1.80;;;10.70;99.90;;;;;;5046118;28;20037;-55
2023/01/08 02:41:23;;;;;;;2.53;1.60;;;10.60;99.90;;;;;;5041606;28;20434;-57
2023/01/08 02:43:52;;;;;;;3.38;1.88;;;10.60;99.90;;;;;;5044519;28;20614;-55
2023/01/08 02:46:24;;;;;;;1.80;1.58;;;10.60;99.90;;;;;;5043168;28;20413;-56
2023/01/08 02:48:57;;;;;;;2.65;1.80;;;10.60;99.90;;;;;;5043970;28;20391;-57
2023/01/08 02:51:47;;;;;;;4.10;2.20;;;10.70;99.90;;;;;;5042593;28;20076;-54
2023/01/08 02:54:18;;;;;;;4.93;2.13;;;10.60;99.90;;;;;;5045498;28;20032;-56
2023/01/08 02:56:49;;;;;;;3.63;1.90;;;10.40;99.90;;;;;;5044202;28;20040;-56
2023/01/08 02:59:16;;;;;;;5.03;1.90;;;10.40;99.90;;;;;;5042500;28;20033;-56
2023/01/08 03:01:42;;;;;;;7.28;2.83;;;10.40;99.90;;;;;;5045388;28;20090;-55
2023/01/08 03:04:17;;;;;;;3.03;1.80;;;10.40;99.90;;;;;;5039107;28;20120;-56
2023/01/08 03:06:43;;;;;;;3.78;2.00;;;10.50;99.90;;;;;;5044179;28;20538;-56
2023/01/08 03:09:09;;;;;;;3.83;2.15;;;10.40;99.90;;;;;;5043913;28;20638;-55
2023/01/08 03:11:45;;;;;;;4.82;2.13;;;10.40;99.90;;;;;;5039735;28;20476;-57
2023/01/08 03:14:26;;;;;;;5.28;2.30;;;10.50;99.90;;;;;;5019816;28;20033;-57
2023/01/08 03:17:04;;;;;;;5.80;2.28;;;10.60;99.90;;;;;;5023218;28;20048;-56
2023/01/08 03:19:36;;;;;;;4.22;2.38;;;10.50;99.90;;;;;;5043299;28;20662;-57
2023/01/08 03:22:06;;;;;;;4.77;2.43;;;10.50;99.90;;;;;;5042537;28;20041;-56
2023/01/08 03:24:36;;;;;;;3.63;1.88;;;10.50;99.90;;;;;;5044449;28;21217;-56
2023/01/08 03:27:04;;;;;;;3.55;2.38;;;10.50;99.90;;;;;;5040982;28;20465;-56
2023/01/08 03:29:31;;;;;;;4.80;2.20;;;10.40;99.90;;;;;;5040992;28;20033;-56
2023/01/08 03:32:03;;;;;;;3.67;2.25;;;10.40;99.90;;;;;;5042043;28;20056;-56
2023/01/08 03:34:32;;;;;;;6.45;2.38;;;10.40;99.90;;;;;;5034688;28;20381;-56
2023/01/08 03:37:01;;;;;;;4.18;2.33;;;10.40;99.90;;;;;;5043000;28;21376;-56
2023/01/08 03:39:39;;;;;;;3.67;2.35;;;10.50;99.90;;;;;;5044902;28;20033;-56
2023/01/08 03:42:09;;;;;;;4.20;2.42;;;10.40;99.90;;;;;;5042937;28;20289;-57
2023/01/08 03:44:35;;;;;;;3.08;2.40;;;10.40;99.90;;;;;;5040449;28;20040;-56
2023/01/08 03:47:01;;;;;;;4.50;2.63;;;10.40;99.90;;;;;;5042843;28;20045;-56
2023/01/08 03:49:28;;;;;;;5.25;2.55;;;10.30;99.90;;;;;;5025855;28;20033;-56
2023/01/08 03:51:54;;;;;;;4.40;1.98;;;10.30;99.90;;;;;;5027858;28;20645;-57
2023/01/08 03:54:23;;;;;;;3.80;2.30;;;10.40;99.90;;;;;;5043250;28;20029;-57
2023/01/08 03:56:49;;;;;;;3.50;2.13;;;10.40;99.90;;;;;;5042846;28;20076;-56
2023/01/08 03:59:15;;;;;;;5.78;2.60;;;10.50;99.90;;;;;;5039769;28;20052;-57
2023/01/08 04:01:41;;;;;;;4.30;2.35;;;10.40;99.90;;;;;;5044265;28;20135;-57
2023/01/08 04:04:07;;;;;;;3.85;2.03;;;10.40;99.90;;;;;;5041079;28;20043;-55
2023/01/08 04:06:33;;;;;;;4.43;2.05;;;10.30;99.90;;;;;;5032942;28;20038;-56
2023/01/08 04:08:58;;;;;;;2.55;1.90;;;10.30;99.90;;;;;;5035537;28;20041;-58
2023/01/08 04:11:24;;;;;;;3.80;2.30;;;10.30;99.90;;;;;;5023045;28;20029;-57
2023/01/08 04:13:49;;;;;;;4.47;2.00;;;10.40;99.90;;;;;;5022404;28;20038;-57
2023/01/08 04:16:15;;;;;;;4.32;1.90;;;10.40;99.90;;;;;;5023544;28;20563;-57
2023/01/08 04:18:41;;;;;;;3.88;1.90;;;10.40;99.90;;;;;;5018877;28;20443;-58
2023/01/08 04:21:06;;;;;;;4.43;1.90;;;10.50;99.90;;;;;;5021678;28;20439;-57
2023/01/08 04:23:32;;;;;;;3.42;1.90;;;10.40;99.90;;;;;;5023503;28;20071;-57
2023/01/08 04:25:57;;;;;;;3.95;2.00;;;10.40;99.90;;;;;;5022460;28;20026;-57
2023/01/08 04:28:23;;;;;;;3.38;1.80;;;10.30;99.90;;;;;;5027356;28;20395;-57
2023/01/08 04:30:49;;;;;;;2.28;1.88;;;10.40;99.90;;;;;;5022607;28;20038;-57
2023/01/08 04:33:15;;;;;;;2.72;1.90;;;10.50;99.90;;;;;;5024186;28;20068;-57
2023/01/08 04:35:40;;;;;;;3.25;1.80;;;10.40;99.90;;;;;;5023018;28;20065;-57
2023/01/08 04:38:06;;;;;;;4.43;1.80;;;10.30;99.90;;;;;;5023731;28;20089;-55
2023/01/08 04:40:33;;;;;;;2.83;1.55;;;10.30;99.90;;;;;;5022918;28;20041;-56
2023/01/08 04:42:59;;;;;;;2.97;1.77;;;10.30;99.90;;;;;;5019525;28;20045;-58
2023/01/08 04:45:24;;;;;;;2.65;2.10;;;10.30;99.90;;;;;;5021856;28;20550;-57
2023/01/08 04:47:57;;;;;;;3.38;1.75;;;10.20;99.90;;;;;;5027186;28;20049;-56
2023/01/08 04:50:23;;;;;;;3.53;2.00;;;10.20;99.90;;;;;;5026801;28;20037;-57
2023/01/08 04:52:49;;;;;;;3.65;1.70;;;10.20;99.90;;;;;;5027025;28;20385;-56
2023/01/08 04:55:14;;;;;;;3.83;1.77;;;10.20;99.90;;;;;;5027659;28;20053;-57
2023/01/08 04:57:40;;;;;;;2.88;1.50;;;10.20;99.90;;;;;;5026884;28;20034;-57
2023/01/08 05:00:06;;;;;;;3.58;1.63;;;10.20;99.90;;;;;;5026081;28;20037;-57
2023/01/08 05:02:32;;;;;;;2.05;1.58;;;10.20;99.90;;;;;;5028038;28;20679;-56
2023/01/08 05:04:57;;;;;;;2.08;1.50;;;10.20;99.90;;;;;;5041659;28;20037;-57
2023/01/08 05:07:23;;;;;;;2.25;1.45;;;10.20;99.90;;;;;;5043549;28;20378;-57
2023/01/08 05:09:49;;;;;;;3.03;1.50;;;10.10;99.90;;;;;;5038717;28;20043;-56
2023/01/08 05:12:14;;;;;;;3.05;1.27;;;10.10;99.90;;;;;;5024097;28;20107;-55
2023/01/08 05:14:40;;;;;;;3.45;1.40;;;10.10;99.90;;;;;;5024218;28;20414;-56
2023/01/08 05:17:05;;;;;;;3.05;1.35;;;10.10;99.90;;;;;;5025439;28;20416;-56
2023/01/08 05:19:31;;;;;;;3.45;1.35;;;10.10;99.90;;;;;;5035098;28;20157;-57
2023/01/08 05:21:57;;;;;;;2.13;1.08;;;10.10;99.90;;;;;;5045514;28;20120;-56
2023/01/08 05:24:22;;;;;;;1.13;0.90;;;10.20;99.90;;;;;;5045003;28;20423;-56
2023/01/08 05:26:48;;;;;;;2.60;1.10;;;10.10;99.90;;;;;;5041987;28;20052;-57
2023/01/08 05:29:13;;;;;;;1.38;0.80;;;10.10;99.90;;;;;;5044489;28;20056;-56
2023/01/08 05:31:39;;;;;;;2.45;0.82;;;10.10;99.90;;;;;;5045679;28;20041;-57
2023/01/08 05:34:04;;;;;;;1.17;0.73;;;10.10;99.90;;;;;;5045934;28;20145;-56
2023/01/08 05:36:30;;;;;;;1.15;0.80;;;10.20;99.90;;;;;;5045794;28;20036;-57
2023/01/08 05:38:56;;;;;;;1.40;0.90;;;10.20;99.90;;;;;;5045143;28;20039;-56
2023/01/08 05:41:21;;;;;;;2.33;0.95;;;10.10;99.90;;;;;;5045047;28;20061;-57
2023/01/08 05:43:47;;;;;;;2.42;0.95;;;10.10;99.90;;;;;;5044824;28;20029;-56
2023/01/08 05:46:12;;;;;;;1.27;0.77;;;10.10;99.90;;;;;;5044232;28;20043;-55
2023/01/08 05:48:38;;;;;;;1.90;0.98;;;10.20;99.90;;;;;;5046557;28;20113;-57
2023/01/08 05:51:04;;;;;;;2.42;0.88;;;10.20;99.90;;;;;;5043755;28;20036;-57
2023/01/08 05:53:33;;;;;;;3.03;0.90;;;10.20;99.90;;;;;;5045392;28;20048;-56
2023/01/08 05:56:01;;;;;;;2.95;1.00;;;10.20;99.90;;;;;;5044263;28;20106;-56
2023/01/08 05:58:26;;;;;;;1.73;0.88;;;10.30;99.90;;;;;;5046451;28;20120;-56
2023/01/08 06:00:52;;;;;;;3.47;1.00;;;10.40;99.90;;;;;;5044876;28;20332;-56
2023/01/08 06:03:22;;;;;;;3.00;1.10;;;10.30;99.90;;;;;;5045630;28;20033;-58
2023/01/08 06:05:47;;;;;;;2.58;0.82;;;10.20;99.90;;;;;;5043056;28;20118;-57
2023/01/08 06:08:14;;;;;;;2.70;0.90;;;10.30;99.90;;;;;;5044857;28;20549;-57
2023/01/08 06:10:40;;;;;;;2.22;0.70;;;10.30;99.90;;;;;;5044166;28;20085;-57
2023/01/08 06:13:07;;;;;;;2.83;0.82;;;10.40;99.90;;;;;;5035689;28;20101;-57
2023/01/08 06:15:32;;;;;;;3.65;1.00;;;10.40;99.90;;;;;;5035930;28;21043;-57
2023/01/08 06:18:02;;;;;;;2.70;0.90;;;10.40;99.90;;;;;;5042600;28;20025;-57
2023/01/08 06:20:27;;;;;;;1.70;0.90;;;10.30;99.90;;;;;;5045592;28;20419;-55
2023/01/08 06:22:53;;;;;;;2.60;1.00;;;10.20;99.90;;;;;;5046052;28;20243;-56
2023/01/08 06:25:18;;;;;;;2.03;0.80;;;10.20;99.90;;;;;;5043929;28;20033;-57
2023/01/08 06:27:48;;;;;;;1.85;0.90;;;10.10;99.90;;;;;;5026186;28;20033;-56
2023/01/08 06:30:14;;;;;;;4.50;1.00;;;10.00;99.90;;;;;;5046223;28;20043;-56
2023/01/08 06:32:40;;;;;;;4.63;1.30;;;10.10;99.90;;;;;;5045138;28;20051;-56
2023/01/08 06:35:06;;;;;;;5.95;1.20;;;10.10;99.90;;;;;;5043034;28;20017;-56
2023/01/08 06:37:31;;;;;;;4.55;1.10;;;10.10;99.90;;;;;;5044812;28;20064;-57
2023/01/08 06:39:57;;;;;;;4.50;0.90;;;10.20;99.90;;;;;;5040000;28;20029;-56
2023/01/08 06:42:22;;;;;;;4.65;0.80;;;10.30;99.90;;;;;;5026434;28;20389;-57
2023/01/08 06:44:48;;;;;;;3.70;1.00;;;10.20;99.90;;;;;;5045549;28;20716;-57
2023/01/08 06:47:13;;;;;;;3.33;0.95;;;10.10;99.90;;;;;;5045006;28;20033;-57
2023/01/08 06:49:39;;;;;;;3.75;0.95;;;10.10;99.90;;;;;;5044494;28;20021;-55
2023/01/08 06:52:04;;;;;;;5.90;1.00;;;10.10;99.90;;;;;;5041319;28;20041;-57
2023/01/08 06:54:30;;;;;;;6.80;0.93;;;10.00;99.90;;;;;;5046280;28;20440;-58
2023/01/08 06:56:55;;;;;;;4.38;0.82;;;9.90;99.90;;;;;;5043291;28;20056;-56
2023/01/08 06:59:21;;;;;;;1.25;0.60;;;10.10;99.90;;;;;;5044350;28;20057;-57
2023/01/08 07:01:47;;;;;;;2.70;1.02;;;9.60;99.90;;;;;;5044384;28;20041;-56
2023/01/08 07:04:12;;;;;;;4.05;1.15;;;9.50;99.90;;;;;;5040690;28;20029;-57
2023/01/08 07:06:38;;;;;;;4.35;1.02;;;9.40;99.90;;;;;;5043620;28;20086;-57
2023/01/08 07:09:04;;;;;;;3.15;0.93;;;9.60;99.90;;;;;;5043915;28;20029;-57
2023/01/08 07:11:29;;;;;;;2.85;1.00;;;9.60;99.90;;;;;;5030671;28;20468;-57
2023/01/08 07:13:55;;;;;;;5.93;1.00;;;9.60;99.90;;;;;;5022165;28;20044;-56
2023/01/08 07:16:21;;;;;;;2.17;0.90;;;9.50;99.90;;;;;;5021283;28;20033;-56
2023/01/08 07:18:46;;;;;;;2.80;1.05;;;9.30;99.90;;;;;;5027855;28;20038;-56
2023/01/08 07:21:12;;;;;;;5.93;1.08;;;9.20;99.90;;;;;;5024423;28;20045;-56
2023/01/08 07:23:38;;;;;;;2.70;0.82;;;9.30;99.90;;;;;;5029532;28;20092;-57
2023/01/08 07:26:06;;;;;;;3.85;0.88;;;9.20;99.90;;;;;;5022277;28;20648;-56
2023/01/08 07:28:32;;;;;;;2.40;0.65;;;9.20;99.90;;;;;;5024728;28;20046;-56
2023/01/08 07:31:02;;;;;;;3.08;1.05;;;9.10;99.90;;;;;;5031733;28;20037;-57
2023/01/08 07:33:27;;;;;;;3.35;0.80;;;8.90;99.90;;;;;;5043523;28;20032;-57
2023/01/08 07:35:54;;;;;;;5.35;0.88;;;9.20;99.90;;;;;;5042912;28;20029;-57
2023/01/08 07:38:20;;;;;;;4.90;0.80;;;8.90;99.90;;;;;;5042082;28;20032;-57
2023/01/08 07:40:46;;;;;;;4.55;0.80;;;8.90;99.90;;;;;;5043304;28;20050;-55
2023/01/08 07:43:12;;;;;;;5.20;0.82;;;9.00;99.90;;;;;;5043637;28;20453;-56
2023/01/08 07:45:38;;;;;;;2.60;0.80;;;9.20;99.90;;;;;;5044477;28;20033;-55
2023/01/08 07:48:04;;;;;;;3.00;0.93;;;9.10;99.90;;;;;;5043300;28;20067;-57
2023/01/08 07:50:30;;;;;;;2.63;1.13;;;8.90;99.90;;;;;;5044293;28;20037;-57
2023/01/08 07:52:57;;;;;;;3.85;0.80;;;8.90;99.90;;;;;;5041046;28;20033;-57
2023/01/08 07:55:22;;;;;;;3.90;0.90;;;8.90;99.90;;;;;;5042406;28;20036;-55
2023/01/08 07:57:48;;;;;;;3.30;0.93;;;8.90;99.90;;;;;;5043511;28;20025;-57
2023/01/08 08:00:14;;;;;;;6.95;1.17;;;9.00;99.90;;;;;;5043029;28;20084;-57
2023/01/08 08:02:39;;;;;;;3.17;0.95;;;8.90;99.90;;;;;;5022135;28;20029;-56
2023/01/08 08:05:05;;;;;;;4.43;0.90;;;8.80;99.90;;;;;;5043557;28;20055;-55
2023/01/08 08:07:31;;;;;;;4.43;1.00;;;8.60;99.90;;;;;;5040369;28;20043;-57
2023/01/08 08:09:56;;;;;;;5.75;2.00;;;8.60;99.90;;;;;;5042792;28;20031;-57
2023/01/08 08:12:22;;;;;;;4.38;1.20;;;8.50;99.90;;;;;;5035102;28;20036;-56
2023/01/08 08:14:47;;;;;;;3.92;1.13;;;8.40;99.90;;;;;;5042777;28;20031;-56
2023/01/08 08:17:13;;;;;;;3.47;1.10;;;8.40;99.90;;;;;;5034030;28;20189;-57
2023/01/08 08:19:40;;;;;;;4.47;0.88;;;8.40;99.90;;;;;;5031858;28;20029;-56
2023/01/08 08:22:05;;;;;;;7.25;1.10;;;8.30;99.90;;;;;;5023291;28;20029;-57
2023/01/08 08:24:31;;;;;;;2.45;0.80;;;8.30;99.90;;;;;;5024597;28;20043;-56
2023/01/08 08:26:57;;;;;;;4.15;1.42;;;8.30;99.90;;;;;;5023380;28;20128;-56
2023/01/08 08:29:22;;;;;;;4.78;1.05;;;8.20;99.90;;;;;;5021930;28;20088;-55
2023/01/08 08:31:48;;;;;;;4.85;1.30;;;8.20;99.90;;;;;;5024392;28;20057;-56
2023/01/08 08:34:13;;;;;;;6.18;1.10;;;8.10;99.90;;;;;;5026469;28;20433;-56
2023/01/08 08:36:39;;;;;;;4.50;1.08;;;8.20;99.90;;;;;;5023968;28;20127;-57
2023/01/08 08:39:04;;;;;;;4.90;1.05;;;8.20;99.90;;;;;;5001912;28;20030;-57
2023/01/08 08:41:30;;;;;;;3.83;1.08;;;8.20;99.90;;;;;;5022382;28;20102;-56
2023/01/08 08:43:55;;;;;;;3.40;0.90;;;8.10;99.90;;;;;;5024559;28;20443;-56
2023/01/08 08:46:21;;;;;;;5.32;1.17;;;8.10;99.90;;;;;;5022252;28;20125;-56
2023/01/08 08:48:46;;;;;;;3.90;1.10;;;8.20;99.90;;;;;;5024918;28;20037;-57
2023/01/08 08:51:13;;;;;;;4.60;1.10;;;8.20;99.90;;;;;;5022744;28;20030;-55
2023/01/08 08:53:38;;;;;;;4.50;1.40;;;8.30;99.90;;;;;;5022845;28;20052;-56
2023/01/08 08:56:04;;;;;;;3.97;1.48;;;8.30;99.90;;;;;;5021620;28;20038;-57
2023/01/08 08:58:30;;;;;;;4.97;1.48;;;8.50;99.90;;;;;;5022700;28;20440;-57
2023/01/08 09:01:02;;;;;;;6.25;1.50;;;8.60;99.90;;;;;;5001251;28;20049;-57
2023/01/08 09:03:28;;;;;;;5.10;1.25;;;8.50;99.90;;;;;;5041196;28;20033;-55
2023/01/08 09:05:54;;;;;;;5.78;1.42;;;8.70;99.90;;;;;;5040936;28;20033;-57
2023/01/08 09:08:19;;;;;;;7.22;1.48;;;8.70;99.90;;;;;;5041746;28;20105;-58
2023/01/08 09:10:45;;;;;;;4.85;1.48;;;8.70;99.90;;;;;;5041715;28;20033;-58
2023/01/08 09:13:11;;;;;;;4.97;2.00;;;8.80;99.90;;;;;;5022510;28;20029;-58
2023/01/08 09:15:37;;;;;;;4.50;1.85;;;8.70;99.90;;;;;;5039295;28;20033;-58
2023/01/08 09:18:03;;;;;;;13.10;2.83;;;8.80;99.90;;;;;;5039842;28;20075;-59
2023/01/08 09:20:29;;;;;;;8.82;2.08;;;8.80;99.90;;;;;;5039640;28;20051;-58
2023/01/08 09:22:58;;;;;;;7.07;1.95;;;8.80;99.90;;;;;;5041605;28;20033;-58
2023/01/08 09:25:24;;;;;;;6.65;1.30;;;8.90;99.90;;;;;;5041917;28;20094;-58
2023/01/08 09:28:00;;;;;;;5.75;1.30;;;8.90;99.90;;;;;;5042394;28;20029;-58
2023/01/08 09:30:27;;;;;;;5.82;1.50;;;9.10;99.90;;;;;;5039749;28;20043;-58
2023/01/08 09:32:59;;;;;;;8.40;1.60;;;9.20;99.90;;;;;;5046428;28;20033;-58
2023/01/08 09:35:25;;;;;;;5.55;1.27;;;9.30;99.90;;;;;;5044986;28;20029;-57
2023/01/08 09:37:52;;;;;;;4.50;1.40;;;9.40;99.90;;;;;;5045955;28;20041;-58
2023/01/08 09:40:19;;;;;;;4.32;1.20;;;9.50;99.90;;;;;;5046326;28;20470;-58
2023/01/08 09:42:59;;;;;;;9.50;1.30;;;9.60;99.90;;;;;;5046761;28;20538;-58
2023/01/08 09:45:28;;;;;;;8.38;1.35;;;9.60;99.90;;;;;;5042778;28;20069;-58
2023/01/08 09:48:00;;;;;;;7.82;1.58;;;9.60;99.90;;;;;;5045276;28;20091;-58
2023/01/08 09:50:28;;;;;;;7.53;1.52;;;9.60;99.90;;;;;;5045421;28;20660;-58
2023/01/08 09:52:54;;;;;;;10.00;1.75;;;9.50;99.90;;;;;;5045389;28;20086;-58
2023/01/08 09:55:19;;;;;;;7.45;1.27;;;9.60;99.90;;;;;;5044726;28;20490;-59
2023/01/08 09:57:46;;;;;;;7.28;1.40;;;9.50;99.90;;;;;;5045938;28;20452;-59
2023/01/08 10:00:18;;;;;;;8.48;1.50;;;9.60;99.90;;;;;;5041674;28;20075;-58
2023/01/08 10:02:44;;;;;;;8.70;1.77;;;9.70;99.90;;;;;;5046052;28;20026;-58
2023/01/08 10:05:15;;;;;;;6.53;1.58;;;9.80;99.90;;;;;;5044605;28;20978;-59
2023/01/08 10:07:41;;;;;;;8.13;1.58;;;10.00;99.90;;;;;;5045130;28;20086;-58
2023/01/08 10:10:23;;;;;;;10.18;1.95;;;9.90;99.90;;;;;;5044085;28;20032;-57
2023/01/08 10:12:50;;;;;;;9.80;1.90;;;10.10;99.90;;;;;;5024507;28;20037;-58
2023/01/08 10:15:18;;;;;;;10.27;1.80;;;10.20;99.90;;;;;;5008706;28;20021;-58
2023/01/08 10:17:55;;;;;;;5.18;1.45;;;10.20;99.90;;;;;;5025906;28;20029;-58
2023/01/08 10:20:23;;;;;;;7.65;2.10;;;10.30;99.90;;;;;;5025882;28;20040;-58
2023/01/08 10:22:52;;;;;;;8.55;2.00;;;10.30;99.90;;;;;;5019358;28;20488;-58
2023/01/08 10:25:21;;;;;;;8.77;1.58;;;10.30;99.90;;;;;;5017186;28;20034;-58
2023/01/08 10:27:51;;;;;;;6.60;1.75;;;10.40;99.90;;;;;;5021271;28;20414;-58
2023/01/08 10:30:27;;;;;;;9.40;1.90;;;10.50;99.90;;;;;;5022360;28;20084;-58
2023/01/08 10:32:54;;;;;;;7.00;1.58;;;10.70;99.90;;;;;;5008051;28;20076;-58
2023/01/08 10:35:28;;;;;;;11.50;1.80;;;10.70;99.90;;;;;;5024377;28;20098;-58
2023/01/08 10:37:53;;;;;;;5.63;1.35;;;10.80;99.90;;;;;;5023559;28;20140;-59
2023/01/08 10:40:44;;;;;;;5.80;1.33;;;10.80;99.90;;;;;;5020924;28;20105;-58
2023/01/08 10:43:23;;;;;;;6.32;1.63;;;10.90;99.90;;;;;;5022928;28;20345;-58
2023/01/08 10:46:01;;;;;;;6.78;2.00;;;10.90;99.90;;;;;;5023218;28;20037;-59
2023/01/08 10:48:44;;;;;;;7.22;1.48;;;11.00;99.90;;;;;;5041367;28;20531;-58
2023/01/08 10:51:20;;;;;;;6.68;1.60;;;10.90;99.90;;;;;;5042546;28;20623;-59
2023/01/08 10:53:45;;;;;;;9.82;2.38;;;10.90;99.90;;;;;;5043996;28;20715;-59
2023/01/08 10:56:26;;;;;;;9.43;2.70;;;10.90;99.90;;;;;;5040686;28;20044;-59
2023/01/08 10:58:52;;;;;;;6.18;1.80;;;10.90;99.90;;;;;;5044761;28;20084;-59
2023/01/08 11:01:27;;;;;;;6.78;2.15;;;11.10;99.90;;;;;;5041191;28;20080;-58
2023/01/08 11:04:01;;;;;;;4.97;1.40;;;11.10;99.90;;;;;;5040002;28;20082;-59
2023/01/08 11:06:30;;;;;;;8.80;1.92;;;11.10;99.90;;;;;;5039612;28;20029;-58
2023/01/08 11:08:58;;;;;;;7.10;2.00;;;11.10;99.90;;;;;;5042496;28;20025;-59
2023/01/08 11:11:35;;;;;;;7.75;1.98;;;11.10;99.90;;;;;;5029771;28;20480;-59
2023/01/08 11:14:13;;;;;;;7.85;1.50;;;11.00;99.90;;;;;;5022469;28;20037;-59
2023/01/08 11:16:40;;;;;;;5.85;1.70;;;11.00;99.90;;;;;;5024621;28;20037;-59
2023/01/08 11:19:24;;;;;;;6.22;1.88;;;11.00;99.90;;;;;;5023378;28;20512;-59
2023/01/08 11:21:55;;;;;;;4.63;1.45;;;11.00;99.90;;;;;;5022834;28;20065;-59
2023/01/08 11:24:31;;;;;;;5.10;1.75;;;10.80;99.90;;;;;;5023472;28;20042;-58
2023/01/08 11:27:11;;;;;;;7.65;1.63;;;10.60;99.90;;;;;;5025784;28;20033;-59
2023/01/08 11:29:40;;;;;;;7.47;1.98;;;10.40;99.90;;;;;;5041423;28;20131;-58
2023/01/08 11:32:17;;;;;;;7.20;1.63;;;10.60;99.90;;;;;;5039808;28;20037;-59
2023/01/08 11:34:59;;;;;;;7.75;2.03;;;10.50;99.90;;;;;;5041250;28;20055;-59
2023/01/08 11:37:32;;;;;;;6.27;1.77;;;10.40;99.90;;;;;;5042486;28;20040;-58
2023/01/08 11:39:58;;;;;;;3.10;1.27;;;10.30;99.90;;;;;;5039874;28;20701;-59
2023/01/08 11:43:03;;;;;;;3.95;1.20;;;10.20;99.90;;;;;;5043695;28;20039;-58
2023/01/08 11:45:54;;;;;;;5.88;1.83;;;10.10;99.90;;;;;;5040830;28;20052;-58
2023/01/08 11:48:38;;;;;;;8.82;1.95;;;10.20;99.90;;;;;;5036031;28;20443;-59
2023/01/08 11:51:22;;;;;;;3.70;1.30;;;10.20;99.90;;;;;;5042802;28;20455;-58
2023/01/08 11:54:23;;;;;;;7.15;2.13;;;10.20;99.90;;;;;;5044351;28;20033;-58
2023/01/08 11:57:06;;;;;;;3.33;1.38;;;10.20;99.90;;;;;;5041393;28;20484;-58
2023/01/08 11:59:54;;;;;;;2.35;0.85;;;10.10;99.90;;;;;;5040762;28;20021;-58
2023/01/08 12:02:58;;;;;;;1.45;0.82;;;10.00;99.90;;;;;;5041883;28;20044;-58
2023/01/08 12:05:30;;;;;;;2.85;0.90;;;9.80;99.90;;;;;;5041057;28;20500;-58
2023/01/08 12:08:03;;;;;;;4.07;0.97;;;9.80;99.90;;;;;;5040990;28;20032;-58
2023/01/08 12:10:49;;;;;;;2.27;0.87;;;9.70;99.90;;;;;;5038597;28;20117;-58
2023/01/08 12:13:33;;;;;;;4.65;0.88;;;9.80;99.90;;;;;;5018677;28;20697;-58
2023/01/08 12:16:09;;;;;;;;;;;9.90;99.90;;;;;;5023763;28;20033;-58
2023/01/08 12:18:59;;;;;;;1.70;0.75;;;10.00;99.90;;;;;;5040019;28;19927;-56
2023/01/08 12:21:44;;;;;;;1.85;0.90;;;10.00;99.90;;;;;;5038646;28;20044;-58
2023/01/08 12:24:48;;;;;;;2.65;0.90;;;10.00;99.90;;;;;;5043463;28;20455;-58
2023/01/08 12:27:35;;;;;;;3.15;1.00;;;10.10;99.90;;;;;;5000296;28;20052;-58
2023/01/08 12:30:44;;;;;;;1.02;0.50;;;10.10;99.90;;;;;;5014841;28;20095;-58
2023/01/08 12:33:15;;;;;;;2.42;0.65;;;10.10;99.90;;;;;;5042581;28;20041;-58
2023/01/08 12:35:49;;;;;;;2.05;0.70;;;10.20;99.90;;;;;;5041305;28;20396;-58
2023/01/08 12:38:42;;;;;;;1.38;0.60;;;10.10;99.90;;;;;;5041728;28;20033;-58
2023/01/08 12:41:13;;;;;;;3.40;0.85;;;10.20;99.90;;;;;;5040134;28;20041;-58
2023/01/08 12:43:59;;;;;;;2.83;0.80;;;10.20;99.90;;;;;;5042087;28;20397;-58
2023/01/08 12:46:29;;;;;;;3.08;0.70;;;10.20;99.90;;;;;;5043792;28;20553;-58
2023/01/08 12:48:56;;;;;;;3.90;1.02;;;10.40;99.90;;;;;;5023177;28;20562;-58
2023/01/08 12:51:37;;;;;;;1.30;0.60;;;10.30;99.90;;;;;;5038396;28;20409;-58
2023/01/08 12:54:11;;;;;;;2.72;0.68;;;10.40;99.90;;;;;;5041071;28;20667;-58
2023/01/08 12:56:45;;;;;;;2.22;0.63;;;10.40;99.90;;;;;;5041517;28;20021;-58
2023/01/08 12:59:37;;;;;;;1.48;0.63;;;10.40;99.90;;;;;;5039820;28;20151;-58
2023/01/08 13:02:37;;;;;;;2.92;0.70;;;10.40;99.90;;;;;;5037501;28;20083;-58
2023/01/08 13:05:31;;;;;;;2.45;0.70;;;10.40;99.90;;;;;;5041188;28;20473;-59